sensor_id;sensor_type;location;lat;lon;timestamp;pressure;altitude;pressure_sealevel;temperature;humidity
64835;BME280;51293;59.296;18.006;2022-12-20T00:01:09;100457.47;;;1.04;100.00
64835;BME280;51293;59.296;18.006;2022-12-20T00:03:35;100462.34;;;1.00;100.00
64835;BME280;51293;59.296;18.006;2022-12-20T00:06:01;100459.72;;;0.92;100.00
64835;BME280;51293;59.296;18.006;2022-12-20T00:08:26;100448.69;;;0.95;100.00
64835;BME280;51293;59.296;18.006;2022-12-20T00:10:52;100455.03;;;0.94;100.00
64835;BME280;51293;59.296;18.006;2022-12-20T00:13:17;100447.53;;;0.90;100.00
64835;BME280;51293;59.296;18.006;2022-12-20T00:15:42;100445.56;;;0.92;100.00
64835;BME280;51293;59.296;18.006;2022-12-20T00:18:08;100448.31;;;0.98;100.00
64835;BME280;51293;59.296;18.006;2022-12-20T00:20:34;100450.88;;;0.92;100.00
64835;BME280;51293;59.296;18.006;2022-12-20T00:22:59;100439.91;;;0.87;100.00
64835;BME280;51293;59.296;18.006;2022-12-20T00:25:25;100435.22;;;0.89;100.00
64835;BME280;51293;59.296;18.006;2022-12-20T00:27:50;100442.75;;;0.85;100.00
64835;BME280;51293;59.296;18.006;2022-12-20T00:30:16;100427.91;;;0.82;100.00
64835;BME280;51293;59.296;18.006;2022-12-20T00:32:43;100424.31;;;0.75;100.00
64835;BME280;51293;59.296;18.006;2022-12-20T00:35:08;100426.13;;;0.75;100.00
64835;BME280;51293;59.296;18.006;2022-12-20T00:37:34;100422.63;;;0.74;100.00
64835;BME280;51293;59.296;18.006;2022-12-20T00:39:59;100421.31;;;0.70;100.00
64835;BME280;51293;59.296;18.006;2022-12-20T00:42:25;100414.16;;;0.71;100.00
64835;BME280;51293;59.296;18.006;2022-12-20T00:44:50;100412.66;;;0.68;100.00
64835;BME280;51293;59.296;18.006;2022-12-20T00:47:15;100410.66;;;0.70;100.00
64835;BME280;51293;59.296;18.006;2022-12-20T00:49:41;100414.16;;;0.71;100.00
64835;BME280;51293;59.296;18.006;2022-12-20T00:52:06;100413.81;;;0.66;100.00
64835;BME280;51293;59.296;18.006;2022-12-20T00:54:32;100410.19;;;0.67;100.00
64835;BME280;51293;59.296;18.006;2022-12-20T00:56:58;100407.53;;;0.67;100.00
64835;BME280;51293;59.296;18.006;2022-12-20T00:59:23;100412.84;;;0.67;100.00
64835;BME280;51293;59.296;18.006;2022-12-20T01:01:50;100415.84;;;0.64;100.00
64835;BME280;51293;59.296;18.006;2022-12-20T01:04:15;100406.84;;;0.65;100.00
64835;BME280;51293;59.296;18.006;2022-12-20T01:06:41;100410.03;;;0.60;100.00
64835;BME280;51293;59.296;18.006;2022-12-20T01:09:06;100407.72;;;0.57;100.00
64835;BME280;51293;59.296;18.006;2022-12-20T01:11:33;100398.88;;;0.56;100.00
64835;BME280;51293;59.296;18.006;2022-12-20T01:14:03;100404.09;;;0.50;100.00
64835;BME280;51293;59.296;18.006;2022-12-20T01:16:31;100401.44;;;0.50;100.00
64835;BME280;51293;59.296;18.006;2022-12-20T01:18:57;100401.09;;;0.45;100.00
64835;BME280;51293;59.296;18.006;2022-12-20T01:21:24;100394.28;;;0.50;100.00
64835;BME280;51293;59.296;18.006;2022-12-20T01:23:51;100388.59;;;0.53;100.00
64835;BME280;51293;59.296;18.006;2022-12-20T01:26:18;100386.41;;;0.49;100.00
64835;BME280;51293;59.296;18.006;2022-12-20T01:28:45;100380.25;;;0.48;100.00
64835;BME280;51293;59.296;18.006;2022-12-20T01:31:16;100380.13;;;0.50;100.00
64835;BME280;51293;59.296;18.006;2022-12-20T01:33:43;100368.50;;;0.43;100.00
64835;BME280;51293;59.296;18.006;2022-12-20T01:36:35;100371.25;;;0.49;100.00
64835;BME280;51293;59.296;18.006;2022-12-20T01:39:11;100371.28;;;0.41;100.00
64835;BME280;51293;59.296;18.006;2022-12-20T01:41:37;100368.16;;;0.38;100.00
64835;BME280;51293;59.296;18.006;2022-12-20T01:44:05;100366.16;;;0.40;100.00
64835;BME280;51293;59.296;18.006;2022-12-20T01:46:33;100371.34;;;0.33;100.00
64835;BME280;51293;59.296;18.006;2022-12-20T01:49:09;100363.66;;;0.38;100.00
64835;BME280;51293;59.296;18.006;2022-12-20T01:51:39;100364.66;;;0.37;100.00
64835;BME280;51293;59.296;18.006;2022-12-20T01:54:13;100356.34;;;0.32;100.00
64835;BME280;51293;59.296;18.006;2022-12-20T01:56:39;100349.53;;;0.30;100.00
64835;BME280;51293;59.296;18.006;2022-12-20T01:59:07;100342.91;;;0.25;100.00
64835;BME280;51293;59.296;18.006;2022-12-20T02:01:33;100341.84;;;0.43;100.00
64835;BME280;51293;59.296;18.006;2022-12-20T02:03:59;100332.91;;;0.27;100.00
64835;BME280;51293;59.296;18.006;2022-12-20T02:06:25;100338.41;;;0.26;100.00
64835;BME280;51293;59.296;18.006;2022-12-20T02:08:56;100344.06;;;0.23;100.00
64835;BME280;51293;59.296;18.006;2022-12-20T02:11:48;100344.75;;;0.25;100.00
64835;BME280;51293;59.296;18.006;2022-12-20T02:16:56;100336.25;;;0.21;100.00
64835;BME280;51293;59.296;18.006;2022-12-20T02:22:28;100325.78;;;0.20;100.00
64835;BME280;51293;59.296;18.006;2022-12-20T02:27:41;100318.44;;;0.22;100.00
64835;BME280;51293;59.296;18.006;2022-12-20T02:30:12;100316.81;;;0.13;100.00
64835;BME280;51293;59.296;18.006;2022-12-20T02:35:23;100308.34;;;0.17;100.00
64835;BME280;51293;59.296;18.006;2022-12-20T02:37:51;100306.97;;;0.21;100.00
64835;BME280;51293;59.296;18.006;2022-12-20T02:40:22;100315.31;;;0.18;100.00
64835;BME280;51293;59.296;18.006;2022-12-20T02:42:53;100311.97;;;0.16;100.00
64835;BME280;51293;59.296;18.006;2022-12-20T02:45:21;100307.50;;;0.17;100.00
64835;BME280;51293;59.296;18.006;2022-12-20T02:48:04;100311.00;;;0.17;100.00
64835;BME280;51293;59.296;18.006;2022-12-20T02:50:37;100293.88;;;0.12;100.00
64835;BME280;51293;59.296;18.006;2022-12-20T02:53:05;100288.84;;;0.17;100.00
64835;BME280;51293;59.296;18.006;2022-12-20T02:58:10;100280.88;;;0.17;100.00
64835;BME280;51293;59.296;18.006;2022-12-20T03:00:41;100278.53;;;0.14;100.00
64835;BME280;51293;59.296;18.006;2022-12-20T03:03:08;100286.00;;;0.18;100.00
64835;BME280;51293;59.296;18.006;2022-12-20T03:05:48;100277.88;;;0.12;100.00
64835;BME280;51293;59.296;18.006;2022-12-20T03:08:14;100272.06;;;0.08;100.00
64835;BME280;51293;59.296;18.006;2022-12-20T03:10:40;100270.59;;;0.06;100.00
64835;BME280;51293;59.296;18.006;2022-12-20T03:13:05;100271.72;;;0.11;100.00
64835;BME280;51293;59.296;18.006;2022-12-20T03:15:31;100266.88;;;0.15;100.00
64835;BME280;51293;59.296;18.006;2022-12-20T03:17:56;100271.38;;;0.14;100.00
64835;BME280;51293;59.296;18.006;2022-12-20T03:20:22;100273.56;;;0.11;100.00
64835;BME280;51293;59.296;18.006;2022-12-20T03:22:47;100258.59;;;0.10;100.00
64835;BME280;51293;59.296;18.006;2022-12-20T03:25:13;100260.94;;;0.05;100.00
64835;BME280;51293;59.296;18.006;2022-12-20T03:27:38;100261.41;;;0.08;100.00
64835;BME280;51293;59.296;18.006;2022-12-20T03:30:04;100264.25;;;0.07;100.00
64835;BME280;51293;59.296;18.006;2022-12-20T03:32:30;100260.56;;;0.08;100.00
64835;BME280;51293;59.296;18.006;2022-12-20T03:34:55;100267.91;;;0.06;100.00
64835;BME280;51293;59.296;18.006;2022-12-20T03:37:21;100262.09;;;0.10;100.00
64835;BME280;51293;59.296;18.006;2022-12-20T03:39:46;100256.44;;;0.05;100.00
64835;BME280;51293;59.296;18.006;2022-12-20T03:42:11;100260.56;;;0.08;100.00
64835;BME280;51293;59.296;18.006;2022-12-20T03:44:37;100246.97;;;0.03;100.00
64835;BME280;51293;59.296;18.006;2022-12-20T03:47:02;100252.94;;;0.05;100.00
64835;BME280;51293;59.296;18.006;2022-12-20T03:49:28;100247.63;;;0.05;100.00
64835;BME280;51293;59.296;18.006;2022-12-20T03:51:53;100243.78;;;0.07;100.00
64835;BME280;51293;59.296;18.006;2022-12-20T03:54:18;100236.78;;;0.06;100.00
64835;BME280;51293;59.296;18.006;2022-12-20T03:56:44;100245.28;;;0.10;100.00
64835;BME280;51293;59.296;18.006;2022-12-20T03:59:09;100244.59;;;0.08;100.00
64835;BME280;51293;59.296;18.006;2022-12-20T04:01:34;100239.63;;;0.05;100.00
64835;BME280;51293;59.296;18.006;2022-12-20T04:04:01;100227.66;;;0.09;100.00
64835;BME280;51293;59.296;18.006;2022-12-20T04:06:27;100229.31;;;0.10;100.00
64835;BME280;51293;59.296;18.006;2022-12-20T04:08:53;100223.47;;;0.06;100.00
64835;BME280;51293;59.296;18.006;2022-12-20T04:11:18;100229.31;;;0.10;100.00
64835;BME280;51293;59.296;18.006;2022-12-20T04:13:45;100221.81;;;0.05;100.00
64835;BME280;51293;59.296;18.006;2022-12-20T04:16:12;100221.00;;;0.05;100.00
64835;BME280;51293;59.296;18.006;2022-12-20T04:18:39;100216.69;;;0.04;100.00
64835;BME280;51293;59.296;18.006;2022-12-20T04:21:04;100213.13;;;0.11;100.00
64835;BME280;51293;59.296;18.006;2022-12-20T04:23:32;100211.81;;;0.07;100.00
64835;BME280;51293;59.296;18.006;2022-12-20T04:25:57;100209.09;;;0.15;100.00
64835;BME280;51293;59.296;18.006;2022-12-20T04:28:23;100201.84;;;0.09;100.00
64835;BME280;51293;59.296;18.006;2022-12-20T04:30:48;100200.16;;;0.08;100.00
64835;BME280;51293;59.296;18.006;2022-12-20T04:33:13;100203.19;;;0.05;100.00
64835;BME280;51293;59.296;18.006;2022-12-20T04:35:39;100200.34;;;0.07;100.00
64835;BME280;51293;59.296;18.006;2022-12-20T04:38:04;100195.84;;;0.07;100.00
64835;BME280;51293;59.296;18.006;2022-12-20T04:40:29;100188.03;;;0.06;100.00
64835;BME280;51293;59.296;18.006;2022-12-20T04:42:55;100191.34;;;0.08;100.00
64835;BME280;51293;59.296;18.006;2022-12-20T04:45:20;100183.72;;;0.05;100.00
64835;BME280;51293;59.296;18.006;2022-12-20T04:47:45;100177.75;;;0.03;100.00
64835;BME280;51293;59.296;18.006;2022-12-20T04:50:11;100176.09;;;0.02;100.00
64835;BME280;51293;59.296;18.006;2022-12-20T04:52:36;100181.59;;;0.00;100.00
64835;BME280;51293;59.296;18.006;2022-12-20T04:55:20;100180.41;;;0.03;100.00
64835;BME280;51293;59.296;18.006;2022-12-20T04:57:45;100172.69;;;0.08;100.00
64835;BME280;51293;59.296;18.006;2022-12-20T05:00:11;100166.72;;;0.06;100.00
64835;BME280;51293;59.296;18.006;2022-12-20T05:02:39;100171.19;;;0.13;100.00
64835;BME280;51293;59.296;18.006;2022-12-20T05:05:05;100171.88;;;0.07;100.00
64835;BME280;51293;59.296;18.006;2022-12-20T05:07:30;100170.72;;;0.10;100.00
64835;BME280;51293;59.296;18.006;2022-12-20T05:09:55;100167.56;;;0.06;100.00
64835;BME280;51293;59.296;18.006;2022-12-20T05:12:21;100176.56;;;0.05;100.00
64835;BME280;51293;59.296;18.006;2022-12-20T05:14:47;100170.03;;;0.08;100.00
64835;BME280;51293;59.296;18.006;2022-12-20T05:17:12;100166.22;;;0.10;100.00
64835;BME280;51293;59.296;18.006;2022-12-20T05:19:37;100169.06;;;0.09;100.00
64835;BME280;51293;59.296;18.006;2022-12-20T05:22:03;100172.19;;;0.12;100.00
64835;BME280;51293;59.296;18.006;2022-12-20T05:24:47;100171.34;;;0.12;100.00
64835;BME280;51293;59.296;18.006;2022-12-20T05:27:31;100172.81;;;0.14;100.00
64835;BME280;51293;59.296;18.006;2022-12-20T05:29:56;100168.88;;;0.10;100.00
64835;BME280;51293;59.296;18.006;2022-12-20T05:32:21;100167.22;;;0.09;100.00
64835;BME280;51293;59.296;18.006;2022-12-20T05:34:47;100171.34;;;0.12;100.00
64835;BME280;51293;59.296;18.006;2022-12-20T05:37:12;100173.97;;;0.20;100.00
64835;BME280;51293;59.296;18.006;2022-12-20T05:39:38;100174.47;;;0.15;100.00
64835;BME280;51293;59.296;18.006;2022-12-20T05:42:03;100178.47;;;0.19;100.00
64835;BME280;51293;59.296;18.006;2022-12-20T05:44:29;100176.44;;;0.21;100.00
64835;BME280;51293;59.296;18.006;2022-12-20T05:46:54;100177.81;;;0.17;100.00
64835;BME280;51293;59.296;18.006;2022-12-20T05:49:20;100182.28;;;0.25;100.00
64835;BME280;51293;59.296;18.006;2022-12-20T05:51:45;100181.66;;;0.15;100.00
64835;BME280;51293;59.296;18.006;2022-12-20T05:54:10;100181.97;;;0.20;100.00
64835;BME280;51293;59.296;18.006;2022-12-20T05:56:36;100174.34;;;0.17;100.00
64835;BME280;51293;59.296;18.006;2022-12-20T05:59:01;100173.09;;;0.27;100.00
64835;BME280;51293;59.296;18.006;2022-12-20T06:01:27;100174.63;;;0.22;100.00
64835;BME280;51293;59.296;18.006;2022-12-20T06:03:52;100170.47;;;0.19;100.00
64835;BME280;51293;59.296;18.006;2022-12-20T06:06:17;100168.81;;;0.18;100.00
64835;BME280;51293;59.296;18.006;2022-12-20T06:08:43;100171.50;;;0.18;100.00
64835;BME280;51293;59.296;18.006;2022-12-20T06:11:08;100166.09;;;0.26;100.00
64835;BME280;51293;59.296;18.006;2022-12-20T06:13:34;100163.97;;;0.22;100.00
64835;BME280;51293;59.296;18.006;2022-12-20T06:15:59;100165.63;;;0.23;100.00
64835;BME280;51293;59.296;18.006;2022-12-20T06:18:25;100157.81;;;0.21;100.00
64835;BME280;51293;59.296;18.006;2022-12-20T06:20:51;100164.59;;;0.24;100.00
64835;BME280;51293;59.296;18.006;2022-12-20T06:23:17;100160.59;;;0.28;100.00
64835;BME280;51293;59.296;18.006;2022-12-20T06:25:43;100169.78;;;0.25;100.00
64835;BME280;51293;59.296;18.006;2022-12-20T06:28:09;100158.94;;;0.27;100.00
64835;BME280;51293;59.296;18.006;2022-12-20T06:30:35;100160.59;;;0.28;100.00
64835;BME280;51293;59.296;18.006;2022-12-20T06:33:01;100159.75;;;0.27;100.00
64835;BME280;51293;59.296;18.006;2022-12-20T06:35:26;100162.25;;;0.29;100.00
64835;BME280;51293;59.296;18.006;2022-12-20T06:37:52;100153.56;;;0.35;100.00
64835;BME280;51293;59.296;18.006;2022-12-20T06:40:17;100152.88;;;0.33;100.00
64835;BME280;51293;59.296;18.006;2022-12-20T06:42:43;100154.06;;;0.31;100.00
64835;BME280;51293;59.296;18.006;2022-12-20T06:45:09;100149.56;;;0.31;100.00
64835;BME280;51293;59.296;18.006;2022-12-20T06:47:34;100148.22;;;0.35;100.00
64835;BME280;51293;59.296;18.006;2022-12-20T06:50:00;100146.00;;;0.39;100.00
64835;BME280;51293;59.296;18.006;2022-12-20T06:52:25;100136.75;;;0.35;100.00
64835;BME280;51293;59.296;18.006;2022-12-20T06:54:50;100131.22;;;0.36;100.00
64835;BME280;51293;59.296;18.006;2022-12-20T06:57:16;100139.22;;;0.36;100.00
64835;BME280;51293;59.296;18.006;2022-12-20T06:59:41;100136.19;;;0.39;100.00
64835;BME280;51293;59.296;18.006;2022-12-20T07:02:10;100135.34;;;0.39;100.00
64835;BME280;51293;59.296;18.006;2022-12-20T07:04:35;100133.06;;;0.36;100.00
64835;BME280;51293;59.296;18.006;2022-12-20T07:07:02;100134.06;;;0.35;100.00
64835;BME280;51293;59.296;18.006;2022-12-20T07:09:27;100133.72;;;0.38;100.00
64835;BME280;51293;59.296;18.006;2022-12-20T07:11:54;100136.56;;;0.36;100.00
64835;BME280;51293;59.296;18.006;2022-12-20T07:14:19;100130.41;;;0.36;100.00
64835;BME280;51293;59.296;18.006;2022-12-20T07:16:44;100135.09;;;0.34;100.00
64835;BME280;51293;59.296;18.006;2022-12-20T07:19:11;100128.38;;;0.38;100.00
64835;BME280;51293;59.296;18.006;2022-12-20T07:21:36;100131.69;;;0.40;100.00
64835;BME280;51293;59.296;18.006;2022-12-20T07:24:02;100139.88;;;0.38;100.00
64835;BME280;51293;59.296;18.006;2022-12-20T07:26:27;100139.50;;;0.41;100.00
64835;BME280;51293;59.296;18.006;2022-12-20T07:28:53;100131.16;;;0.44;100.00
64835;BME280;51293;59.296;18.006;2022-12-20T07:31:19;100141.31;;;0.41;100.00
64835;BME280;51293;59.296;18.006;2022-12-20T07:33:44;100130.66;;;0.41;100.00
64835;BME280;51293;59.296;18.006;2022-12-20T07:36:12;100142.81;;;0.43;100.00
64835;BME280;51293;59.296;18.006;2022-12-20T07:38:37;100138.13;;;0.45;100.00
64835;BME280;51293;59.296;18.006;2022-12-20T07:41:12;100136.31;;;0.46;100.00
64835;BME280;51293;59.296;18.006;2022-12-20T07:43:38;100126.09;;;0.49;100.00
64835;BME280;51293;59.296;18.006;2022-12-20T07:46:04;100124.28;;;0.50;100.00
64835;BME280;51293;59.296;18.006;2022-12-20T07:48:30;100129.63;;;0.50;100.00
64835;BME280;51293;59.296;18.006;2022-12-20T07:51:04;100127.78;;;0.50;100.00
64835;BME280;51293;59.296;18.006;2022-12-20T07:53:31;100122.47;;;0.50;100.00
64835;BME280;51293;59.296;18.006;2022-12-20T07:55:59;100105.09;;;0.54;100.00
64835;BME280;51293;59.296;18.006;2022-12-20T07:58:26;100114.72;;;0.55;100.00
64835;BME280;51293;59.296;18.006;2022-12-20T08:00:52;100122.09;;;0.53;100.00
64835;BME280;51293;59.296;18.006;2022-12-20T08:03:21;100116.38;;;0.56;100.00
64835;BME280;51293;59.296;18.006;2022-12-20T08:05:52;100117.06;;;0.59;100.00
64835;BME280;51293;59.296;18.006;2022-12-20T08:08:18;100107.22;;;0.59;100.00
64835;BME280;51293;59.296;18.006;2022-12-20T08:10:44;100101.88;;;0.59;100.00
64835;BME280;51293;59.296;18.006;2022-12-20T08:13:11;100111.47;;;0.68;100.00
64835;BME280;51293;59.296;18.006;2022-12-20T08:15:36;100101.50;;;0.62;100.00
64835;BME280;51293;59.296;18.006;2022-12-20T08:18:02;100102.63;;;0.68;100.00
64835;BME280;51293;59.296;18.006;2022-12-20T08:20:28;100095.16;;;0.63;100.00
64835;BME280;51293;59.296;18.006;2022-12-20T08:22:53;100102.78;;;0.66;100.00
64835;BME280;51293;59.296;18.006;2022-12-20T08:25:19;100098.84;;;0.62;100.00
64835;BME280;51293;59.296;18.006;2022-12-20T08:27:45;100103.81;;;0.65;100.00
64835;BME280;51293;59.296;18.006;2022-12-20T08:30:11;100108.59;;;0.70;100.00
64835;BME280;51293;59.296;18.006;2022-12-20T08:32:37;100101.31;;;0.64;100.00
64835;BME280;51293;59.296;18.006;2022-12-20T08:35:03;100102.63;;;0.68;100.00
64835;BME280;51293;59.296;18.006;2022-12-20T08:37:29;100105.66;;;0.65;100.00
64835;BME280;51293;59.296;18.006;2022-12-20T08:39:54;100095.72;;;0.73;100.00
64835;BME280;51293;59.296;18.006;2022-12-20T08:42:19;100100.78;;;0.68;100.00
64835;BME280;51293;59.296;18.006;2022-12-20T08:44:45;100100.59;;;0.70;100.00
64835;BME280;51293;59.296;18.006;2022-12-20T08:47:10;100104.75;;;0.72;100.00
64835;BME280;51293;59.296;18.006;2022-12-20T08:49:35;100107.59;;;0.71;100.00
64835;BME280;51293;59.296;18.006;2022-12-20T08:52:01;100099.06;;;0.75;100.00
64835;BME280;51293;59.296;18.006;2022-12-20T08:54:26;100107.22;;;0.74;100.00
64835;BME280;51293;59.296;18.006;2022-12-20T08:56:51;100104.31;;;0.83;100.00
64835;BME280;51293;59.296;18.006;2022-12-20T08:59:17;100094.81;;;0.81;100.00
64835;BME280;51293;59.296;18.006;2022-12-20T09:01:42;100095.84;;;0.80;100.00
64835;BME280;51293;59.296;18.006;2022-12-20T09:04:09;100096.94;;;0.86;100.00
64835;BME280;51293;59.296;18.006;2022-12-20T09:06:35;100089.50;;;0.81;100.00
64835;BME280;51293;59.296;18.006;2022-12-20T09:09:01;100079.84;;;0.80;100.00
64835;BME280;51293;59.296;18.006;2022-12-20T09:11:27;100084.81;;;0.83;100.00
64835;BME280;51293;59.296;18.006;2022-12-20T09:13:55;100076.81;;;0.83;100.00
64835;BME280;51293;59.296;18.006;2022-12-20T09:16:24;100082.78;;;0.85;100.00
64835;BME280;51293;59.296;18.006;2022-12-20T09:18:52;100075.25;;;0.89;100.00
64835;BME280;51293;59.296;18.006;2022-12-20T09:21:19;100075.72;;;0.92;100.00
64835;BME280;51293;59.296;18.006;2022-12-20T09:23:44;100069.38;;;0.93;100.00
64835;BME280;51293;59.296;18.006;2022-12-20T09:26:13;100059.72;;;0.92;100.00
64835;BME280;51293;59.296;18.006;2022-12-20T09:28:39;100055.66;;;0.96;100.00
64835;BME280;51293;59.296;18.006;2022-12-20T09:31:07;100054.28;;;1.00;100.00
64835;BME280;51293;59.296;18.006;2022-12-20T09:33:34;100055.47;;;0.98;100.00
64835;BME280;51293;59.296;18.006;2022-12-20T09:36:00;100061.47;;;1.00;100.00
64835;BME280;51293;59.296;18.006;2022-12-20T09:38:26;100056.78;;;1.02;100.00
64835;BME280;51293;59.296;18.006;2022-12-20T09:40:55;100055.47;;;0.98;100.00
64835;BME280;51293;59.296;18.006;2022-12-20T09:43:21;100062.34;;;1.07;100.00
64835;BME280;51293;59.296;18.006;2022-12-20T09:45:51;100057.84;;;1.07;100.00
64835;BME280;51293;59.296;18.006;2022-12-20T09:48:20;100066.88;;;1.06;100.00
64835;BME280;51293;59.296;18.006;2022-12-20T09:56:59;100088.50;;;1.11;100.00
64835;BME280;51293;59.296;18.006;2022-12-20T09:59:28;100082.63;;;1.16;100.00
64835;BME280;51293;59.296;18.006;2022-12-20T10:01:54;100081.75;;;1.16;100.00
64835;BME280;51293;59.296;18.006;2022-12-20T10:04:25;100074.31;;;1.26;100.00
64835;BME280;51293;59.296;18.006;2022-12-20T10:09:54;100065.94;;;1.29;100.00
64835;BME280;51293;59.296;18.006;2022-12-20T10:12:43;100071.84;;;1.24;100.00
64835;BME280;51293;59.296;18.006;2022-12-20T10:17:49;100051.69;;;1.22;100.00
64835;BME280;51293;59.296;18.006;2022-12-20T10:25:39;100041.63;;;1.38;100.00
64835;BME280;51293;59.296;18.006;2022-12-20T10:28:11;100040.78;;;1.38;100.00
64835;BME280;51293;59.296;18.006;2022-12-20T10:30:38;100040.25;;;1.43;100.00
64835;BME280;51293;59.296;18.006;2022-12-20T10:33:03;100032.03;;;1.44;100.00
64835;BME280;51293;59.296;18.006;2022-12-20T10:35:36;100043.97;;;1.48;100.00
64835;BME280;51293;59.296;18.006;2022-12-20T10:38:07;100044.25;;;1.53;100.00
64835;BME280;51293;59.296;18.006;2022-12-20T10:40:42;100046.91;;;1.53;100.00
64835;BME280;51293;59.296;18.006;2022-12-20T10:43:15;100049.19;;;1.56;100.00
64835;BME280;51293;59.296;18.006;2022-12-20T10:45:42;100033.38;;;1.55;100.00
64835;BME280;51293;59.296;18.006;2022-12-20T10:48:31;100041.34;;;1.69;100.00
64835;BME280;51293;59.296;18.006;2022-12-20T10:51:03;100039.06;;;1.66;100.00
64835;BME280;51293;59.296;18.006;2022-12-20T10:53:49;100036.56;;;1.65;100.00
64835;BME280;51293;59.296;18.006;2022-12-20T10:59:00;100031.88;;;1.67;100.00
64835;BME280;51293;59.296;18.006;2022-12-20T11:01:32;100033.97;;;1.72;100.00
64835;BME280;51293;59.296;18.006;2022-12-20T11:04:06;100031.69;;;1.68;100.00
64835;BME280;51293;59.296;18.006;2022-12-20T11:06:45;100028.00;;;1.69;100.00
64835;BME280;51293;59.296;18.006;2022-12-20T11:12:06;100022.94;;;1.75;100.00
64835;BME280;51293;59.296;18.006;2022-12-20T11:14:34;100012.47;;;1.80;100.00
64835;BME280;51293;59.296;18.006;2022-12-20T11:17:05;100009.56;;;1.75;100.00
64835;BME280;51293;59.296;18.006;2022-12-20T11:23:14;100007.78;;;1.82;100.00
64835;BME280;51293;59.296;18.006;2022-12-20T11:25:55;100007.91;;;1.95;100.00
64835;BME280;51293;59.296;18.006;2022-12-20T11:28:53;100007.47;;;1.91;100.00
64835;BME280;51293;59.296;18.006;2022-12-20T11:34:26;100017.56;;;1.96;100.00
64835;BME280;51293;59.296;18.006;2022-12-20T11:42:13;100015.34;;;2.00;100.00
64835;BME280;51293;59.296;18.006;2022-12-20T11:45:04;100010.19;;;1.98;100.00
64835;BME280;51293;59.296;18.006;2022-12-20T11:56:25;100017.06;;;2.07;100.00
64835;BME280;51293;59.296;18.006;2022-12-20T11:58:58;100019.34;;;2.10;100.00
64835;BME280;51293;59.296;18.006;2022-12-20T12:01:30;100019.06;;;2.05;100.00
64835;BME280;51293;59.296;18.006;2022-12-20T12:04:06;100020.34;;;2.09;100.00
64835;BME280;51293;59.296;18.006;2022-12-20T12:06:37;100019.41;;;2.17;100.00
64835;BME280;51293;59.296;18.006;2022-12-20T12:09:30;100015.44;;;2.13;100.00
64835;BME280;51293;59.296;18.006;2022-12-20T12:12:01;100008.50;;;2.18;100.00
64835;BME280;51293;59.296;18.006;2022-12-20T12:14:37;100011.94;;;2.12;100.00
64835;BME280;51293;59.296;18.006;2022-12-20T12:17:37;100007.50;;;2.19;100.00
64835;BME280;51293;59.296;18.006;2022-12-20T12:22:50;100008.06;;;2.15;100.00
64835;BME280;51293;59.296;18.006;2022-12-20T12:25:17;99993.78;;;2.29;100.00
64835;BME280;51293;59.296;18.006;2022-12-20T12:27:43;99989.88;;;2.25;100.00
64835;BME280;51293;59.296;18.006;2022-12-20T12:30:16;99989.03;;;2.24;100.00
64835;BME280;51293;59.296;18.006;2022-12-20T12:32:44;99981.66;;;2.27;100.00
64835;BME280;51293;59.296;18.006;2022-12-20T12:38:48;99973.09;;;2.38;100.00
64835;BME280;51293;59.296;18.006;2022-12-20T12:46:43;99975.84;;;2.51;100.00
64835;BME280;51293;59.296;18.006;2022-12-20T12:49:15;99964.09;;;2.45;100.00
64835;BME280;51293;59.296;18.006;2022-12-20T12:51:50;99971.69;;;2.42;100.00
64835;BME280;51293;59.296;18.006;2022-12-20T12:54:26;99969.00;;;2.42;100.00
64835;BME280;51293;59.296;18.006;2022-12-20T12:56:59;99970.06;;;2.47;100.00
64835;BME280;51293;59.296;18.006;2022-12-20T13:04:28;99972.00;;;2.60;100.00
64835;BME280;51293;59.296;18.006;2022-12-20T13:06:59;99973.16;;;2.51;100.00
64835;BME280;51293;59.296;18.006;2022-12-20T13:11:52;99980.38;;;2.50;100.00
64835;BME280;51293;59.296;18.006;2022-12-20T13:17:33;99967.22;;;2.49;100.00
64835;BME280;51293;59.296;18.006;2022-12-20T13:19:48;99971.53;;;2.50;100.00
64835;BME280;51293;59.296;18.006;2022-12-20T13:27:25;99950.59;;;2.60;100.00
64835;BME280;51293;59.296;18.006;2022-12-20T13:35:43;99957.84;;;2.66;100.00
64835;BME280;51293;59.296;18.006;2022-12-20T13:40:44;99967.31;;;2.69;100.00
64835;BME280;51293;59.296;18.006;2022-12-20T13:45:57;99968.13;;;2.69;100.00
64835;BME280;51293;59.296;18.006;2022-12-20T13:51:03;99981.13;;;2.79;100.00
64835;BME280;51293;59.296;18.006;2022-12-20T13:53:29;99978.66;;;2.77;100.00
64835;BME280;51293;59.296;18.006;2022-12-20T13:55:56;99978.66;;;2.77;100.00
64835;BME280;51293;59.296;18.006;2022-12-20T13:58:25;99985.28;;;2.81;100.00
64835;BME280;51293;59.296;18.006;2022-12-20T14:00:51;99985.69;;;2.85;100.00
64835;BME280;51293;59.296;18.006;2022-12-20T14:03:28;99980.34;;;2.85;100.00
64835;BME280;51293;59.296;18.006;2022-12-20T14:06:02;99979.53;;;2.85;100.00
64835;BME280;51293;59.296;18.006;2022-12-20T14:08:33;99979.56;;;2.91;100.00
64835;BME280;51293;59.296;18.006;2022-12-20T14:11:09;99963.50;;;2.91;100.00
64835;BME280;51293;59.296;18.006;2022-12-20T14:13:35;99976.06;;;2.91;100.00
64835;BME280;51293;59.296;18.006;2022-12-20T14:16:14;99969.25;;;2.88;100.00
64835;BME280;51293;59.296;18.006;2022-12-20T14:18:40;99968.44;;;2.94;100.00
64835;BME280;51293;59.296;18.006;2022-12-20T14:21:06;99975.41;;;2.89;100.00
64835;BME280;51293;59.296;18.006;2022-12-20T14:23:45;99982.63;;;2.88;100.00